Flight Track Log - Related Links

Times and Time Zones

All times are in EDT time to prevent confusion due to time zone crossing. See the ASQ4209 flight status page for this flight to view local times or setup timezone preferences in your user account.

Time Position Orientation Groundspeed Altitude Reporting Facility
EDT Latitude Longitude Course Direction KTS MPH feet Rate Location/Type
Thu 03:24:20 PM 30.4886 -91.1044 226° Southwest 185 213 3,200  Level Houston Center
Thu 03:25:23 PM 30.4742 -91.1661 255° West 221 254 5,600 2,352 Climbing Houston Center
Thu 03:26:00 PM 30.4577 -91.5478 263° West  Level FlightAware Approximate
Thu 03:26:25 PM 30.4669 -91.2453 264° West 241 277 8,100  Level Houston Center
Thu 03:27:00 PM 30.4406 -91.6543 254° West  Level FlightAware Approximate
Thu 03:27:27 PM 30.4556 -91.3464 263° West 261 300 10,000  Level Houston Center
Thu 03:28:00 PM 30.3874 -91.7408 227° Southwest  Level FlightAware Approximate
Thu 03:28:29 PM 30.4411 -91.4500 261° West 324 373 10,000  Level Houston Center
Thu 03:29:00 PM 30.3261 -91.8148 226° Southwest  Level FlightAware Approximate
Thu 03:29:31 PM 30.4153 -91.5478 253° West 325 374 11,400  Level Houston Center
Thu 03:30:34 PM 30.3703 -91.6394 240° Southwest 328 377 12,900 1,440 Climbing Houston Center
Thu 03:31:36 PM 30.3203 -91.7394 240° Southwest 343 395 14,400 1,403 Climbing Houston Center
Thu 03:32:38 PM 30.2717 -91.8364 240° Southwest 348 400 15,800 1,500 Climbing Houston Center
Thu 03:33:40 PM 30.2139 -91.9528 240° Southwest 348 400 17,500 1,403 Climbing Houston Center
Thu 03:34:42 PM 30.1631 -92.0408 236° Southwest 348 400 18,700 1,152 Climbing Houston Center
Thu 03:35:45 PM 30.1058 -92.1306 234° Southwest 347 399 19,900 624 Climbing Houston Center
Thu 03:36:47 PM 30.0433 -92.2264 233° Southwest 366 421 20,000 48 Climbing Houston Center
Thu 03:37:49 PM 29.9631 -92.3472 233° Southwest 390 449 20,000  Level Houston Center
Thu 03:38:51 PM 29.9006 -92.4458 234° Southwest 388 447 20,000  Level Houston Center
Thu 03:39:53 PM 29.8358 -92.5442 233° Southwest 386 444 20,000  Level Houston Center
Thu 03:40:56 PM 29.7739 -92.6408 234° Southwest 380 437 20,000  Level Houston Center
Thu 03:41:58 PM 29.7086 -92.7383 232° Southwest 380 437 20,000  Level Houston Center
Thu 03:43:00 PM 29.6442 -92.8364 233° Southwest 380 437 20,000  Level Houston Center
Thu 03:44:02 PM 29.5664 -92.9556 233° Southwest 384 442 20,000  Level Houston Center
Thu 03:45:04 PM 29.5008 -93.0575 234° Southwest 389 448 20,000  Level Houston Center
Thu 03:46:07 PM 29.4900 -93.1769 264° West 383 441 20,000  Level Houston Center
Thu 03:47:09 PM 29.4953 -93.3003 273° West 384 442 20,000  Level Houston Center
Thu 03:48:11 PM 29.5003 -93.4250 273° West 387 445 20,000  Level Houston Center
Thu 03:49:13 PM 29.5047 -93.5497 272° West 390 449 20,000  Level Houston Center
Thu 03:50:15 PM 29.5106 -93.6992 273° West 390 449 20,000  Level Houston Center
Thu 03:51:18 PM 29.5147 -93.8239 272° West 390 449 20,000 -240 Level Houston Center
Thu 03:52:20 PM 29.5203 -93.9475 273° West 390 449 19,500 -1,403 Descending Houston Center
Thu 03:53:22 PM 29.5244 -94.0647 272° West 370 426 17,100 -2,521 Descending Houston Center
Thu 03:54:19 PM 29.5264 -94.1828 271° West 356 410 14,500 -2,323 Descending Houston Center
Thu 03:54:24 PM 29.5275 -94.1736 82° East 362 417 14,700 -1,475 Climbing Houston Center
Thu 03:55:20 PM 29.5317 -94.2975 272° West 338 389 13,000 -1,645 Descending Houston Center
Thu 03:55:26 PM 29.5328 -94.3042 281° West 345 397 13,000 -295 Level Houston Center
Thu 03:56:21 PM 29.5542 -94.3956 285° West 334 384 12,700 -286 Descending Houston Center
Thu 03:56:29 PM 29.5594 -94.4042 305° West 336 387 12,700 -1,082 Level Houston Center
Thu 03:57:22 PM 29.5956 -94.4958 294° West 336 387 11,600 -1,065 Descending Houston Center
Thu 03:57:31 PM 29.6003 -94.4997 324° Northwest 334 384 11,600 -968 Level Houston Center
Thu 03:58:24 PM 29.6361 -94.5892 295° West 331 381 10,600 -968 Descending Houston Center
Thu 03:58:33 PM 29.6403 -94.5939 315° West 334 384 10,600 -1,075 Level Houston Center
Thu 03:59:31 PM 29.6769 -94.6850 295° West 282 325 9,400 -1,065 Descending Houston Center
Thu 03:59:35 PM 29.6764 -94.6778 95° East 301 346 9,500 -1,082 Climbing Houston Center
Thu 04:00:32 PM 29.7097 -94.7628 294° West 265 305 8,300 -1,161 Descending Houston Center
Thu 04:00:37 PM 29.7142 -94.7703 304° West 273 314 8,300 -982 Level Houston Center
Thu 04:01:27 PM 29.7394 -94.8311 296° West 261 300 7,400 -952 Descending Houston Center
Thu 04:01:40 PM 29.7461 -94.8444 300° West 266 306 7,300 -1,082 Descending Houston Center
Thu 04:02:28 PM 29.7694 -94.9044 294° West 254 292 6,300 -1,161 Descending Houston Center
Thu 04:02:42 PM 29.7764 -94.9167 303° West 260 299 6,100 -393 Descending Houston Center
Thu 04:03:29 PM 29.8019 -94.9800 295° West 247 284 5,900 -194 Descending Houston Center
Thu 04:03:44 PM 29.8053 -94.9869 299° West 252 290 5,900  Level Houston Center
Thu 04:04:24 PM 29.8311 -95.0461 297° West 249 287 5,900  Level Houston Center
Thu 04:04:46 PM 29.8358 -95.0583 294° West 251 289 5,900 98 Level Houston Center
Thu 04:05:25 PM 29.8611 -95.1194 296° West 257 296 6,000  Climbing Houston Center
Thu 04:05:48 PM 29.8728 -95.1461 297° West 253 291 5,900 -98 Descending Houston Center
Thu 04:06:26 PM 29.8933 -95.1953 296° West 263 303 5,900 97 Level Houston Center
Thu 04:06:50 PM 29.8981 -95.2225 281° West 259 298 6,000  Climbing Houston Center
Thu 04:07:28 PM 29.8989 -95.2764 271° West 246 283 5,900  Descending Houston Center
Thu 04:07:53 PM 29.8986 -95.3014 269° West 253 291 6,000 91 Climbing Houston Center
Thu 04:08:34 PM 29.8989 -95.3681 270° West 252 290 6,000  Level Houston Center
Thu 04:08:55 PM 29.9000 -95.3806 276° West 251 289 6,000  Level Houston Center
Thu 04:09:35 PM 29.9000 -95.4497 270° West 249 287 6,000 -97 Level Houston Center
Thu 04:09:57 PM 29.8997 -95.4608 268° West 251 289 5,900 -97 Descending Houston Center
Thu 04:10:37 PM 29.8989 -95.5294 269° West 251 289 5,900  Level Houston Center
Thu 04:10:59 PM 29.9008 -95.5567 275° West 251 289 5,900  Level Houston Center
Thu 04:11:38 PM 29.9000 -95.6114 269° West 246 283 5,900 -387 Level Houston Center
Thu 04:12:01 PM 29.9036 -95.6331 281° West 246 283 5,500 -1,770 Descending Houston Center
Thu 04:12:39 PM 29.9497 -95.6536 339° North 276 318 4,100 -1,452 Descending Houston Center
Thu 04:13:03 PM 29.9717 -95.6461 16° North 267 307 4,000 -179 Descending Houston Center
Thu 04:13:46 PM 29.9931 -95.5956 64° Northeast 212 244 3,900 -190 Descending Houston Center
Thu 04:14:06 PM 29.9950 -95.5825 80° East 226 260 3,800 -764 Descending Houston Center
Thu 04:14:41 PM 29.9919 -95.5378 94° East 192 221 3,200 -871 Descending Houston Center
Thu 04:15:08 PM 29.9925 -95.5206 88° East 201 231 2,900 -1,075 Descending Houston Center
Thu 04:15:48 PM 29.9925 -95.4725 90° East 182 209 2,000 -1,161 Descending Houston Center
Thu 04:16:10 PM 29.9933 -95.4497 88° East 192 221 1,700 -787 Descending Houston Center
Thu 04:16:49 PM 29.9919 -95.4219 93° East 134 154 1,200 -677 Descending Houston Center
Thu 04:17:12 PM 29.9928 -95.4036 87° East 167 192 1,000 -677 Descending Houston Center
Thu 04:17:51 PM 29.9922 -95.3786 91° East 129 148 500 -484 Descending Houston Center
Thu 04:18:14 PM 29.9936 -95.3583 85° East 147 169 500  Level Houston Center

Login

Don't have an account? Register now (free) for customized features, flight alerts, and more!